Zim Luanda — 9HA2029 — position and weather

sailwx.info

Track history (hours):
 
Tides and Currents Weather Stations Pressure Air Temp Water Temp Dewpoint Dewpoint Depression Visibility Wind Speed Wind Dir Waves Ship Positions

Zim Luanda

Last reported at 2017-Feb-26 16:33 UTC. Time now 2017-Feb-28 03:27 UTC.
Position N 37°42' E 016°10'.

Length 260 m; draft 10.7 m.

Type: Ship (hazmat cat A). MMSI: 249830000.

Date/timePositionNaut miles runAvg speedWind from/ knotsBaromVisibWave heightAir tempDewpointWater temp
2017-Feb-26 16:33N 37°42' E 016°10'2323.1
2017-Feb-26 15:33N 37°51' E 015°44'1817.6
2017-Feb-26 14:33N 38°08' E 015°35'1312.6
2017-Feb-26 13:33N 38°20' E 015°39'1211.6
2017-Feb-26 12:34N 38°28' E 015°28'2020.4
2017-Feb-26 11:34N 38°43' E 015°10'2321.7
2017-Feb-26 10:29N 38°60' E 014°49'32621.9
2017-Feb-25 19:33N 43°06' E 010°06'2221.8
2017-Feb-25 18:33N 43°27' E 010°12'9 7.9
2017-Feb-25 17:28N 43°35' E 010°18'0 0.0
2017-Feb-25 16:31N 43°35' E 010°18'0 0.0
2017-Feb-25 15:31N 43°35' E 010°18'0 0.0
2017-Feb-25 14:31N 43°35' E 010°18'0 0.0
2017-Feb-25 13:31N 43°35' E 010°18'0 0.0
2017-Feb-25 12:31N 43°35' E 010°18'0 0.0
2017-Feb-25 11:31N 43°35' E 010°18'0 0.0
2017-Feb-25 10:28N 43°35' E 010°18'0 0.0
2017-Feb-25 09:31N 43°35' E 010°18'0 0.0
2017-Feb-25 08:31N 43°35' E 010°18'0 0.0
2017-Feb-25 07:31N 43°35' E 010°18'0 0.0
2017-Feb-25 06:31N 43°35' E 010°18'0 0.0
2017-Feb-25 05:31N 43°35' E 010°18'0 0.0
2017-Feb-25 04:31N 43°35' E 010°18'0 0.0
2017-Feb-25 03:31N 43°35' E 010°18'0 0.0
2017-Feb-25 02:31N 43°35' E 010°18'0 0.0
2017-Feb-25 01:28N 43°35' E 010°18'0 0.0
2017-Feb-25 00:31N 43°35' E 010°18'0 0.0
2017-Feb-24 23:31N 43°35' E 010°18'0 0.0
2017-Feb-24 22:31N 43°35' E 010°18'0 0.0
2017-Feb-24 21:31N 43°35' E 010°18'0 0.0
2017-Feb-24 20:31N 43°35' E 010°18'0 0.0
2017-Feb-24 19:31N 43°35' E 010°18'0 0.0
2017-Feb-24 18:31N 43°35' E 010°18'0 0.0
2017-Feb-24 17:31N 43°35' E 010°18'0 0.0
2017-Feb-24 16:31N 43°35' E 010°18'0 0.0
2017-Feb-24 15:32N 43°35' E 010°18'4 4.6
2017-Feb-24 14:33N 43°31' E 010°15'4 3.8
2017-Feb-24 13:33N 43°28' E 010°11'1716.7
2017-Feb-24 12:33N 43°18' E 009°53'2019.5
2017-Feb-24 11:33N 43°12' E 009°27'2620.7
2017-Feb-24 10:19N 43°03' E 008°54'1821.5
2017-Feb-24 09:28N 42°56' E 008°31'2121.3
2017-Feb-24 08:30N 42°49' E 008°05'26121.2
2017-Feb-23 20:12N 41°14' E 002°37'1421.1
2017-Feb-23 19:33N 41°09' E 002°20'2121.2
2017-Feb-23 18:33N 41°03' E 001°53'2121.2
2017-Feb-23 17:34N 41°02' E 001°25'10 9.5
2017-Feb-23 16:31N 41°06' E 001°13'0 0.0
2017-Feb-23 15:31N 41°06' E 001°13'0 0.0
2017-Feb-23 14:13N 41°06' E 001°13'0 0.0
2017-Feb-23 09:31N 41°06' E 001°13'0 0.0
2017-Feb-23 08:31N 41°06' E 001°13'0 0.0
2017-Feb-23 07:31N 41°06' E 001°13'0 0.0
2017-Feb-23 06:04N 41°06' E 001°13'1 1.9
2017-Feb-23 05:33N 41°05' E 001°13'7 7.1
2017-Feb-23 04:33N 40°58' E 001°10'1818.1
2017-Feb-23 03:33N 40°40' E 001°04'2222.4
2017-Feb-23 02:33N 40°21' E 000°50'5722.7
2017-Feb-23 00:04N 39°37' E 000°04'1121.4
2017-Feb-22 23:33N 39°30' W 000°07'10 9.6
2017-Feb-22 22:33N 39°27' W 000°19'0 0.0
2017-Feb-22 21:33N 39°27' W 000°19'0 0.0
2017-Feb-22 20:33N 39°27' W 000°19'0 0.0
2017-Feb-22 19:33N 39°27' W 000°19'0 0.0
2017-Feb-22 18:33N 39°27' W 000°19'0 0.0
2017-Feb-22 17:33N 39°27' W 000°19'0 0.0
2017-Feb-22 16:33N 39°27' W 000°19'0 0.0
2017-Feb-22 15:33N 39°27' W 000°19'0 0.0
2017-Feb-22 14:33N 39°27' W 000°19'0 0.0
2017-Feb-22 13:33N 39°27' W 000°19'0 0.0
2017-Feb-22 12:33N 39°27' W 000°19'0 0.0
2017-Feb-22 11:33N 39°27' W 000°19'0 0.0
2017-Feb-22 10:33N 39°27' W 000°19'0 0.0
2017-Feb-22 09:33N 39°27' W 000°19'0 0.0
2017-Feb-22 08:33N 39°27' W 000°19'0 0.0
2017-Feb-22 07:33N 39°27' W 000°19'0 0.0
2017-Feb-22 06:33N 39°27' W 000°19'0 0.0
2017-Feb-22 05:33N 39°27' W 000°19'0 0.0
2017-Feb-22 04:33N 39°27' W 000°19'0 0.0
2017-Feb-22 03:33N 39°27' W 000°19'0 0.0
2017-Feb-22 02:33N 39°27' W 000°19'0 0.0
2017-Feb-22 01:33N 39°27' W 000°19'0 0.0
2017-Feb-22 00:33N 39°27' W 000°19'0 0.0
2017-Feb-21 23:33N 39°27' W 000°19'0 0.0
2017-Feb-21 22:33N 39°27' W 000°19'0 0.0
2017-Feb-21 21:33N 39°27' W 000°19'0 0.0
2017-Feb-21 20:33N 39°27' W 000°19'4 0.9
2017-Feb-21 16:20N 39°24' W 000°15'0 0.5
2017-Feb-21 15:34N 39°24' W 000°15'10114.4
2017-Feb-21 08:33N 37°43' W 000°22'2019.9
2017-Feb-21 07:31N 37°27' W 000°39'2019.4
2017-Feb-21 06:28N 37°14' W 000°58'19717.7
2017-Feb-20 19:20N 36°03' W 004°48'1216.0
2017-Feb-20 18:34N 36°02' W 005°03'1716.6
2017-Feb-20 17:33N 35°58' W 005°23'1818.0
2017-Feb-20 16:33N 35°55' W 005°45'63921.2
2017-Feb-19 10:27N 33°22' W 018°19'8722.1
2017-Feb-19 06:29N 33°01' W 020°00'2122.2
2017-Feb-19 05:33N 32°56' W 020°24'2222.0
2017-Feb-19 04:33N 32°50' W 020°49'2421.9
2017-Feb-19 03:28N 32°44' W 021°17'24022.0
2017-Feb-18 16:34N 31°46' W 025°52'2221.7
2017-Feb-18 15:33N 31°40' W 026°17'2322.3
2017-Feb-18 14:30N 31°34' W 026°43'2321.0
2017-Feb-18 13:25N 31°29' W 027°09'1920.7
2017-Feb-18 12:32N 31°24' W 027°30'  
Track history (hours):
 
Tides and Currents Weather Stations Pressure Air Temp Water Temp Dewpoint Dewpoint Depression Visibility Wind Speed Wind Dir Waves Ship Positions

Zim Luanda

Last reported at 2017-Feb-26 16:33 UTC. Time now 2017-Feb-28 03:27 UTC.
Position N 37°42' E 016°10'.

Length 260 m; draft 10.7 m.

Type: Ship (hazmat cat A). MMSI: 249830000.

Date/timePositionNaut miles runAvg speedWind from/ knotsBaromVisibWave heightAir tempDewpointWater temp
2017-Feb-26 16:33N 37°42' E 016°10'2323.1
2017-Feb-26 15:33N 37°51' E 015°44'1817.6
2017-Feb-26 14:33N 38°08' E 015°35'1312.6
2017-Feb-26 13:33N 38°20' E 015°39'1211.6
2017-Feb-26 12:34N 38°28' E 015°28'2020.4
2017-Feb-26 11:34N 38°43' E 015°10'2321.7
2017-Feb-26 10:29N 38°60' E 014°49'32621.9
2017-Feb-25 19:33N 43°06' E 010°06'2221.8
2017-Feb-25 18:33N 43°27' E 010°12'9 7.9
2017-Feb-25 17:28N 43°35' E 010°18'0 0.0
2017-Feb-25 16:31N 43°35' E 010°18'0 0.0
2017-Feb-25 15:31N 43°35' E 010°18'0 0.0
2017-Feb-25 14:31N 43°35' E 010°18'0 0.0
2017-Feb-25 13:31N 43°35' E 010°18'0 0.0
2017-Feb-25 12:31N 43°35' E 010°18'0 0.0
2017-Feb-25 11:31N 43°35' E 010°18'0 0.0
2017-Feb-25 10:28N 43°35' E 010°18'0 0.0
2017-Feb-25 09:31N 43°35' E 010°18'0 0.0
2017-Feb-25 08:31N 43°35' E 010°18'0 0.0
2017-Feb-25 07:31N 43°35' E 010°18'0 0.0
2017-Feb-25 06:31N 43°35' E 010°18'0 0.0
2017-Feb-25 05:31N 43°35' E 010°18'0 0.0
2017-Feb-25 04:31N 43°35' E 010°18'0 0.0
2017-Feb-25 03:31N 43°35' E 010°18'0 0.0
2017-Feb-25 02:31N 43°35' E 010°18'0 0.0
2017-Feb-25 01:28N 43°35' E 010°18'0 0.0
2017-Feb-25 00:31N 43°35' E 010°18'0 0.0
2017-Feb-24 23:31N 43°35' E 010°18'0 0.0
2017-Feb-24 22:31N 43°35' E 010°18'0 0.0
2017-Feb-24 21:31N 43°35' E 010°18'0 0.0
2017-Feb-24 20:31N 43°35' E 010°18'0 0.0
2017-Feb-24 19:31N 43°35' E 010°18'0 0.0
2017-Feb-24 18:31N 43°35' E 010°18'0 0.0
2017-Feb-24 17:31N 43°35' E 010°18'0 0.0
2017-Feb-24 16:31N 43°35' E 010°18'0 0.0
2017-Feb-24 15:32N 43°35' E 010°18'4 4.6
2017-Feb-24 14:33N 43°31' E 010°15'4 3.8
2017-Feb-24 13:33N 43°28' E 010°11'1716.7
2017-Feb-24 12:33N 43°18' E 009°53'2019.5
2017-Feb-24 11:33N 43°12' E 009°27'2620.7
2017-Feb-24 10:19N 43°03' E 008°54'1821.5
2017-Feb-24 09:28N 42°56' E 008°31'2121.3
2017-Feb-24 08:30N 42°49' E 008°05'26121.2
2017-Feb-23 20:12N 41°14' E 002°37'1421.1
2017-Feb-23 19:33N 41°09' E 002°20'2121.2
2017-Feb-23 18:33N 41°03' E 001°53'2121.2
2017-Feb-23 17:34N 41°02' E 001°25'10 9.5
2017-Feb-23 16:31N 41°06' E 001°13'0 0.0
2017-Feb-23 15:31N 41°06' E 001°13'0 0.0
2017-Feb-23 14:13N 41°06' E 001°13'0 0.0
2017-Feb-23 09:31N 41°06' E 001°13'0 0.0
2017-Feb-23 08:31N 41°06' E 001°13'0 0.0
2017-Feb-23 07:31N 41°06' E 001°13'0 0.0
2017-Feb-23 06:04N 41°06' E 001°13'1 1.9
2017-Feb-23 05:33N 41°05' E 001°13'7 7.1
2017-Feb-23 04:33N 40°58' E 001°10'1818.1
2017-Feb-23 03:33N 40°40' E 001°04'2222.4
2017-Feb-23 02:33N 40°21' E 000°50'5722.7
2017-Feb-23 00:04N 39°37' E 000°04'1121.4
2017-Feb-22 23:33N 39°30' W 000°07'10 9.6
2017-Feb-22 22:33N 39°27' W 000°19'0 0.0
2017-Feb-22 21:33N 39°27' W 000°19'0 0.0
2017-Feb-22 20:33N 39°27' W 000°19'0 0.0
2017-Feb-22 19:33N 39°27' W 000°19'0 0.0
2017-Feb-22 18:33N 39°27' W 000°19'0 0.0
2017-Feb-22 17:33N 39°27' W 000°19'0 0.0
2017-Feb-22 16:33N 39°27' W 000°19'0 0.0
2017-Feb-22 15:33N 39°27' W 000°19'0 0.0
2017-Feb-22 14:33N 39°27' W 000°19'0 0.0
2017-Feb-22 13:33N 39°27' W 000°19'0 0.0
2017-Feb-22 12:33N 39°27' W 000°19'0 0.0
2017-Feb-22 11:33N 39°27' W 000°19'0 0.0
2017-Feb-22 10:33N 39°27' W 000°19'0 0.0
2017-Feb-22 09:33N 39°27' W 000°19'0 0.0
2017-Feb-22 08:33N 39°27' W 000°19'0 0.0
2017-Feb-22 07:33N 39°27' W 000°19'0 0.0
2017-Feb-22 06:33N 39°27' W 000°19'0 0.0
2017-Feb-22 05:33N 39°27' W 000°19'0 0.0
2017-Feb-22 04:33N 39°27' W 000°19'0 0.0
2017-Feb-22 03:33N 39°27' W 000°19'0 0.0
2017-Feb-22 02:33N 39°27' W 000°19'0 0.0
2017-Feb-22 01:33N 39°27' W 000°19'0 0.0
2017-Feb-22 00:33N 39°27' W 000°19'0 0.0
2017-Feb-21 23:33N 39°27' W 000°19'0 0.0
2017-Feb-21 22:33N 39°27' W 000°19'0 0.0
2017-Feb-21 21:33N 39°27' W 000°19'0 0.0
2017-Feb-21 20:33N 39°27' W 000°19'4 0.9
2017-Feb-21 16:20N 39°24' W 000°15'0 0.5
2017-Feb-21 15:34N 39°24' W 000°15'10114.4
2017-Feb-21 08:33N 37°43' W 000°22'2019.9
2017-Feb-21 07:31N 37°27' W 000°39'2019.4
2017-Feb-21 06:28N 37°14' W 000°58'19717.7
2017-Feb-20 19:20N 36°03' W 004°48'1216.0
2017-Feb-20 18:34N 36°02' W 005°03'1716.6
2017-Feb-20 17:33N 35°58' W 005°23'1818.0
2017-Feb-20 16:33N 35°55' W 005°45'63921.2
2017-Feb-19 10:27N 33°22' W 018°19'8722.1
2017-Feb-19 06:29N 33°01' W 020°00'2122.2
2017-Feb-19 05:33N 32°56' W 020°24'2222.0
2017-Feb-19 04:33N 32°50' W 020°49'2421.9
2017-Feb-19 03:28N 32°44' W 021°17'24022.0
2017-Feb-18 16:34N 31°46' W 025°52'2221.7
2017-Feb-18 15:33N 31°40' W 026°17'2322.3
2017-Feb-18 14:30N 31°34' W 026°43'2321.0
2017-Feb-18 13:25N 31°29' W 027°09'1920.7
2017-Feb-18 12:32N 31°24' W 027°30'  

Dump ship's entire track history